Ozark Regional Airport Mountain Home US
ICAO: KBPK
IATA: WMH
Category: Medium
Scheduled Services: No

Elevation: 928 ft
TransAlt. 18000 ft.

Airport Communications:
ASOS:133.975
MEMPHIS CNTR:126.85
CTAF/UNICOM:123

KBPK Zoom In..

Runways:

(A) RW 05 length 5001 ft width 75 ft
ILS 111.95 / hdg 49

(B) RW 23 length 5001 ft width 75 ft
---- / hdg 229

Location; KBPK
Day. 14 / Time. 13.53 Zulu
* Altimeter: 30.01
* Temperature: 22° c. 71.6°f.
* Wind from: 200° Speed 06 kn.
Dewpoint: 22° c.
Visibility: 10 Statute Miles.
Clouds: Few 500 ft.

KBPK 141353Z AUTO 20006KT 10SM FEW005 22/22 A3001 RMK AO2 RAE23 SLP153 P0001 T02170217


Wind From 200°
Speed 06 kn.

 
 
jpsmedia.com for Web Design worldairports.se 2018   terms of use